Main page
METAR-TAF:

METAR-TAF

Airports :

Nouakchott, Mauritania

Nouakchott–Oumtounsy International Airport

latitude: 18-18-36N, longitude: 015-58-11W, elevation: 3 m

Current weather observation

The report was made 30 minutes ago, at 03:30 UTC
Wind 5 kt from the North/Northeast
Temperature 27°C
Humidity 26%
Pressure 1010 hPa
Visibility 10 km or more
no clouds below 1500 m and no cumulonimbus

METAR: GQNO 240330Z 02005KT CAVOK 27/06 Q1010 NOSIG

Time: 04:00 (04:00 UTC)

Forecast

The report was made 11 hours and 0 minutes ago, at 17:00 UTC
Forecast valid from 23 at 18 UTC to 24 at 24 UTC
Wind 12 kt from the East/Northeast
Visibility: 7000 m
Becoming
from 23 at 18 UTC to 23 at 20 UTC
Wind 12 kt from the North/Northwest
Becoming
from 24 at 09 UTC to 24 at 12 UTC
Wind 12 kt from the East/Northeast

TAF: GQNO 231700Z 2318/2424 07012KT 7000 NSC BECMG 2318/2320 33012KT BECMG 2409/2412 06012KT

Weather observations and forecasts of more than 4000 airports (METAR and TAF reports).

The available stations are represented by yellow and red dots on the map.

Hover mouse over dot to see the name of the station.

Then click to see weather observations and forecasts.

To change the map : click on the green buttons with a black cross to zoom in, on the green button with a dash to zoom out, or on the green arrows for adjacent maps.


METAR-TAF: